Airfield :
LOGIN :

Register | Disclaimer

   EN    FR    IT 

 










Legend :    VFR   Marginal VFR   IFR   Intensive IFR   Very Intensive IFR
Visi :
Ceiling :
>= 8 km
>= 3000ft
5 to 8 km
1000 to 3000 ft
1500m to 5 km
500 to 1000 ft
800 to 1500m
200 to 500 ft
< 800m
< 200 ft
Symbols :   Thunderstorms  Fog  Heavy snow  Heavy precipitations  Wind > 20 kt
SIGMETs :     Misc.  Thunderstorms  Icing  Turbulence  Mountain Waves  Volcanic Ashes







- Airport Elevation : 1306 ft
- IATA code : ACH


LSZR - Alten Rhein

CURRENT METAR :
  • 221150Z 04012KT 010V070 9999 BKN033 00/M05 Q1011 NOSIG RMK G

EXPIRED METARs :
  • 221120Z 05013KT 9999 BKN033 01/M05 Q1011 NOSIG RMK G
  • 221050Z 05014KT 9999 BKN033 M00/M06 Q1011 NOSIG RMK F
  • 221020Z 05014KT 9999 BKN033 M00/M06 Q1011 NOSIG RMK F
  • 220950Z 05011KT 020V080 9999 SCT027 BKN032 M00/M05 Q1011 NOSIG RMK E
  • 220920Z 05012KT 010V090 9999 SCT027 BKN032 M01/M05 Q1011 NOSIG RMK E

TAF TAF LSZR
Valid from the 22 at 12:00 until the 22 at 21:00 UTC


221125Z 2212/2221 03012G25KT 9999 BKN025
PROB30
TEMPO 2212/2218 4000 -SN
ATIS : +41 71 858 51 66
No reported NOTAMs for that airfield.



MET'MAP, your aeronautical weather chart ! - Copyright ORBIFLY December 2007 - Disclaimer

ORBIFLY MET'MAP TEAM :

Programming & Development : Alexandra Zaïnal
Concept & Development : Baudouin d'Aumeries
Co-Development & Prog : Marc-Olivier Méhu
Technical & hardware support : Manuel Goepfert

Contact : metmap@orbifly.com




SOURCES & CREDITS :

   NOAA